Terminal Aerodrome Forecast
Issued by NWS

Current Version | Previous Version | Graphics & Text | Print | Product List | Glossary On
Versions: 1 2 3 4 5 6 7 8 9 10 11 12 13 14 15 16 17 18 19 20 21 22 23 24 25 26 27
177
FTUS41 KRLX 251120
TAFCKB
TAF
KCKB 251120Z 2512/2612 03004KT 1SM BR BKN001
      TEMPO 2512/2513 5SM BR SCT002
     FM251300 00000KT P6SM SCT015
      TEMPO 2513/2516 BKN015
     FM261000 00000KT 5SM BR SCT250=

USA.gov is the U.S. government's official web portal to all federal, state and local government web resources and services.